Terminal Aerodrome Forecast
Issued by NWS

Home | Current Version | Previous Version | Text Only | Print | Product List | Glossary On
Versions: 1 2 3 4 5 6 7 8 9 10 11 12 13 14 15 16
000
FTAK31 PAJN 161700
TAFASI
TAF
PASI 161721Z 1618/1718 11007KT P6SM SCT040 BKN080
     FM170200 06009KT P6SM SCT050 BKN100
     FM170800 09008KT P6SM -RA OVC040
     FM171500 11006KT 6SM -RA BR OVC025=

USA.gov is the U.S. government's official web portal to all federal, state and local government web resources and services.